sensor_id;sensor_type;location;lat;lon;timestamp;pressure;altitude;pressure_sealevel;temperature;humidity
41230;BME280;26964;50.428;19.218;2023-08-12T00:00:49;1025.6;;;13.1;64.9
41230;BME280;26964;50.428;19.218;2023-08-12T00:01:48;1025.6;;;13.1;65.0
41230;BME280;26964;50.428;19.218;2023-08-12T00:02:48;1025.7;;;13.1;65.0
41230;BME280;26964;50.428;19.218;2023-08-12T00:03:49;1025.7;;;13.1;65.0
41230;BME280;26964;50.428;19.218;2023-08-12T00:04:49;1025.6;;;13.1;65.0
41230;BME280;26964;50.428;19.218;2023-08-12T00:05:49;1025.6;;;13.1;65.1
41230;BME280;26964;50.428;19.218;2023-08-12T00:06:49;1025.6;;;13.1;65.1
41230;BME280;26964;50.428;19.218;2023-08-12T00:07:48;1025.5;;;13.1;65.1
41230;BME280;26964;50.428;19.218;2023-08-12T00:08:49;1025.6;;;13.1;65.1
41230;BME280;26964;50.428;19.218;2023-08-12T00:09:49;1025.6;;;13.1;65.1
41230;BME280;26964;50.428;19.218;2023-08-12T00:10:49;1025.6;;;13.1;65.2
41230;BME280;26964;50.428;19.218;2023-08-12T00:11:49;1025.5;;;13.0;65.2
41230;BME280;26964;50.428;19.218;2023-08-12T00:12:49;1025.6;;;13.1;65.2
41230;BME280;26964;50.428;19.218;2023-08-12T00:13:48;1025.6;;;13.0;65.2
41230;BME280;26964;50.428;19.218;2023-08-12T00:14:49;1025.6;;;13.1;65.3
41230;BME280;26964;50.428;19.218;2023-08-12T00:15:50;1025.6;;;13.0;65.3
41230;BME280;26964;50.428;19.218;2023-08-12T00:16:49;1025.6;;;13.0;65.4
41230;BME280;26964;50.428;19.218;2023-08-12T00:17:49;1025.5;;;13.0;65.3
41230;BME280;26964;50.428;19.218;2023-08-12T00:18:49;1025.5;;;13.0;65.4
41230;BME280;26964;50.428;19.218;2023-08-12T00:19:49;1025.5;;;13.0;65.5
41230;BME280;26964;50.428;19.218;2023-08-12T00:20:49;1025.6;;;13.0;65.5
41230;BME280;26964;50.428;19.218;2023-08-12T00:21:49;1025.6;;;13.0;65.5
41230;BME280;26964;50.428;19.218;2023-08-12T00:22:49;1025.6;;;13.0;65.5
41230;BME280;26964;50.428;19.218;2023-08-12T00:23:49;1025.6;;;13.0;65.6
41230;BME280;26964;50.428;19.218;2023-08-12T00:24:49;1025.6;;;13.0;65.6
41230;BME280;26964;50.428;19.218;2023-08-12T00:25:49;1025.6;;;12.9;65.7
41230;BME280;26964;50.428;19.218;2023-08-12T00:26:49;1025.6;;;12.9;65.7
41230;BME280;26964;50.428;19.218;2023-08-12T00:27:49;1025.6;;;12.9;65.8
41230;BME280;26964;50.428;19.218;2023-08-12T00:28:49;1025.6;;;12.9;65.7
41230;BME280;26964;50.428;19.218;2023-08-12T00:29:48;1025.6;;;12.9;65.8
41230;BME280;26964;50.428;19.218;2023-08-12T00:30:49;1025.5;;;12.9;65.8
41230;BME280;26964;50.428;19.218;2023-08-12T00:31:49;1025.5;;;12.9;65.8
41230;BME280;26964;50.428;19.218;2023-08-12T00:32:49;1025.6;;;12.9;65.8
41230;BME280;26964;50.428;19.218;2023-08-12T00:33:49;1025.6;;;12.9;65.8
41230;BME280;26964;50.428;19.218;2023-08-12T00:34:49;1025.6;;;12.9;65.9
41230;BME280;26964;50.428;19.218;2023-08-12T00:35:48;1025.6;;;12.9;65.9
41230;BME280;26964;50.428;19.218;2023-08-12T00:36:49;1025.6;;;12.9;65.9
41230;BME280;26964;50.428;19.218;2023-08-12T00:37:49;1025.6;;;12.9;65.9
41230;BME280;26964;50.428;19.218;2023-08-12T00:38:49;1025.5;;;12.9;65.9
41230;BME280;26964;50.428;19.218;2023-08-12T00:39:50;1025.6;;;12.9;65.9
41230;BME280;26964;50.428;19.218;2023-08-12T00:40:48;1025.6;;;12.9;65.9
41230;BME280;26964;50.428;19.218;2023-08-12T00:41:49;1025.6;;;12.9;65.9
41230;BME280;26964;50.428;19.218;2023-08-12T00:42:49;1025.6;;;12.9;65.9
41230;BME280;26964;50.428;19.218;2023-08-12T00:43:49;1025.6;;;12.9;65.9
41230;BME280;26964;50.428;19.218;2023-08-12T00:44:49;1025.6;;;12.9;66.0
41230;BME280;26964;50.428;19.218;2023-08-12T00:45:48;1025.5;;;12.9;66.0
41230;BME280;26964;50.428;19.218;2023-08-12T00:46:49;1025.6;;;12.9;66.0
41230;BME280;26964;50.428;19.218;2023-08-12T00:47:48;1025.5;;;12.9;66.0
41230;BME280;26964;50.428;19.218;2023-08-12T00:48:48;1025.5;;;12.9;66.0
41230;BME280;26964;50.428;19.218;2023-08-12T00:49:49;1025.5;;;12.8;66.0
41230;BME280;26964;50.428;19.218;2023-08-12T00:50:48;1025.5;;;12.8;66.1
41230;BME280;26964;50.428;19.218;2023-08-12T00:51:49;1025.4;;;12.8;66.1
41230;BME280;26964;50.428;19.218;2023-08-12T00:52:49;1025.4;;;12.8;66.1
41230;BME280;26964;50.428;19.218;2023-08-12T00:53:50;1025.4;;;12.8;66.2
41230;BME280;26964;50.428;19.218;2023-08-12T00:54:48;1025.5;;;12.8;66.2
41230;BME280;26964;50.428;19.218;2023-08-12T00:55:49;1025.4;;;12.8;66.2
41230;BME280;26964;50.428;19.218;2023-08-12T00:56:49;1025.4;;;12.8;66.3
41230;BME280;26964;50.428;19.218;2023-08-12T00:57:49;1025.4;;;12.8;66.3
41230;BME280;26964;50.428;19.218;2023-08-12T00:58:49;1025.4;;;12.8;66.3
41230;BME280;26964;50.428;19.218;2023-08-12T00:59:49;1025.4;;;12.7;66.3
41230;BME280;26964;50.428;19.218;2023-08-12T01:00:49;1025.4;;;12.7;66.4
41230;BME280;26964;50.428;19.218;2023-08-12T01:01:49;1025.5;;;12.7;66.4
41230;BME280;26964;50.428;19.218;2023-08-12T01:02:48;1025.4;;;12.7;66.4
41230;BME280;26964;50.428;19.218;2023-08-12T01:03:48;1025.5;;;12.7;66.4
41230;BME280;26964;50.428;19.218;2023-08-12T01:04:49;1025.4;;;12.7;66.5
41230;BME280;26964;50.428;19.218;2023-08-12T01:05:49;1025.4;;;12.7;66.5
41230;BME280;26964;50.428;19.218;2023-08-12T01:06:49;1025.4;;;12.7;66.5
41230;BME280;26964;50.428;19.218;2023-08-12T01:07:49;1025.4;;;12.7;66.5
41230;BME280;26964;50.428;19.218;2023-08-12T01:08:49;1025.4;;;12.7;66.6
41230;BME280;26964;50.428;19.218;2023-08-12T01:09:49;1025.4;;;12.7;66.6
41230;BME280;26964;50.428;19.218;2023-08-12T01:10:57;1025.4;;;12.7;66.6
41230;BME280;26964;50.428;19.218;2023-08-12T01:11:57;1025.4;;;12.7;66.6
41230;BME280;26964;50.428;19.218;2023-08-12T01:12:59;1025.4;;;12.7;66.5
41230;BME280;26964;50.428;19.218;2023-08-12T01:13:55;1025.4;;;12.7;66.5
41230;BME280;26964;50.428;19.218;2023-08-12T01:14:55;1025.5;;;12.7;66.5
41230;BME280;26964;50.428;19.218;2023-08-12T01:15:50;1025.4;;;12.6;66.5
41230;BME280;26964;50.428;19.218;2023-08-12T01:16:53;1025.5;;;12.6;66.5
41230;BME280;26964;50.428;19.218;2023-08-12T01:17:48;1025.5;;;12.6;66.5
41230;BME280;26964;50.428;19.218;2023-08-12T01:18:49;1025.5;;;12.6;66.5
41230;BME280;26964;50.428;19.218;2023-08-12T01:19:49;1025.5;;;12.5;66.6
41230;BME280;26964;50.428;19.218;2023-08-12T01:20:49;1025.4;;;12.5;66.6
41230;BME280;26964;50.428;19.218;2023-08-12T01:21:49;1025.5;;;12.5;66.7
41230;BME280;26964;50.428;19.218;2023-08-12T01:22:49;1025.5;;;12.5;66.7
41230;BME280;26964;50.428;19.218;2023-08-12T01:23:49;1025.5;;;12.5;66.8
41230;BME280;26964;50.428;19.218;2023-08-12T01:24:51;1025.5;;;12.4;66.8
41230;BME280;26964;50.428;19.218;2023-08-12T01:25:49;1025.4;;;12.4;66.8
41230;BME280;26964;50.428;19.218;2023-08-12T01:26:49;1025.5;;;12.4;66.8
41230;BME280;26964;50.428;19.218;2023-08-12T01:27:49;1025.5;;;12.4;66.8
41230;BME280;26964;50.428;19.218;2023-08-12T01:28:49;1025.5;;;12.4;66.8
41230;BME280;26964;50.428;19.218;2023-08-12T01:29:50;1025.5;;;12.4;66.8
41230;BME280;26964;50.428;19.218;2023-08-12T01:30:54;1025.6;;;12.4;66.8
41230;BME280;26964;50.428;19.218;2023-08-12T01:31:54;1025.6;;;12.3;66.8
41230;BME280;26964;50.428;19.218;2023-08-12T01:32:53;1025.5;;;12.3;66.8
41230;BME280;26964;50.428;19.218;2023-08-12T01:33:54;1025.5;;;12.3;66.8
41230;BME280;26964;50.428;19.218;2023-08-12T01:34:51;1025.5;;;12.2;66.8
41230;BME280;26964;50.428;19.218;2023-08-12T01:35:54;1025.5;;;12.2;66.8
41230;BME280;26964;50.428;19.218;2023-08-12T01:36:54;1025.5;;;12.1;66.9
41230;BME280;26964;50.428;19.218;2023-08-12T01:37:51;1025.5;;;12.1;66.9
41230;BME280;26964;50.428;19.218;2023-08-12T01:38:52;1025.5;;;12.1;67.0
41230;BME280;26964;50.428;19.218;2023-08-12T01:39:49;1025.5;;;12.1;67.0
41230;BME280;26964;50.428;19.218;2023-08-12T01:40:48;1025.5;;;12.0;67.1
41230;BME280;26964;50.428;19.218;2023-08-12T01:41:49;1025.5;;;12.0;67.1
41230;BME280;26964;50.428;19.218;2023-08-12T01:42:48;1025.5;;;12.0;67.2
41230;BME280;26964;50.428;19.218;2023-08-12T01:43:48;1025.5;;;12.0;67.2
41230;BME280;26964;50.428;19.218;2023-08-12T01:44:49;1025.5;;;12.0;67.2
41230;BME280;26964;50.428;19.218;2023-08-12T01:45:48;1025.7;;;12.0;67.2
41230;BME280;26964;50.428;19.218;2023-08-12T01:46:49;1025.6;;;12.0;67.2
41230;BME280;26964;50.428;19.218;2023-08-12T01:47:49;1025.6;;;12.0;67.3
41230;BME280;26964;50.428;19.218;2023-08-12T01:48:48;1025.6;;;12.0;67.3
41230;BME280;26964;50.428;19.218;2023-08-12T01:49:49;1025.6;;;12.0;67.3
41230;BME280;26964;50.428;19.218;2023-08-12T01:50:48;1025.6;;;12.0;67.3
41230;BME280;26964;50.428;19.218;2023-08-12T01:51:48;1025.7;;;12.0;67.3
41230;BME280;26964;50.428;19.218;2023-08-12T01:52:49;1025.6;;;12.0;67.3
41230;BME280;26964;50.428;19.218;2023-08-12T01:53:48;1025.6;;;12.0;67.3
41230;BME280;26964;50.428;19.218;2023-08-12T01:54:49;1025.7;;;12.0;67.3
41230;BME280;26964;50.428;19.218;2023-08-12T01:55:49;1025.6;;;12.0;67.3
41230;BME280;26964;50.428;19.218;2023-08-12T01:56:49;1025.7;;;12.0;67.3
41230;BME280;26964;50.428;19.218;2023-08-12T01:57:49;1025.7;;;12.0;67.3
41230;BME280;26964;50.428;19.218;2023-08-12T01:58:49;1025.7;;;12.0;67.3
41230;BME280;26964;50.428;19.218;2023-08-12T01:59:49;1025.7;;;12.0;67.3
41230;BME280;26964;50.428;19.218;2023-08-12T02:00:49;1025.7;;;12.0;67.3
41230;BME280;26964;50.428;19.218;2023-08-12T02:01:49;1025.7;;;12.0;67.3
41230;BME280;26964;50.428;19.218;2023-08-12T02:02:49;1025.7;;;12.0;67.4
41230;BME280;26964;50.428;19.218;2023-08-12T02:03:48;1025.6;;;12.0;67.4
41230;BME280;26964;50.428;19.218;2023-08-12T02:04:48;1025.7;;;12.0;67.4
41230;BME280;26964;50.428;19.218;2023-08-12T02:05:49;1025.7;;;12.0;67.4
41230;BME280;26964;50.428;19.218;2023-08-12T02:06:49;1025.7;;;12.0;67.4
41230;BME280;26964;50.428;19.218;2023-08-12T02:07:49;1025.7;;;11.9;67.4
41230;BME280;26964;50.428;19.218;2023-08-12T02:08:49;1025.6;;;11.9;67.3
41230;BME280;26964;50.428;19.218;2023-08-12T02:09:49;1025.6;;;11.9;67.3
41230;BME280;26964;50.428;19.218;2023-08-12T02:10:49;1025.6;;;11.9;67.3
41230;BME280;26964;50.428;19.218;2023-08-12T02:11:48;1025.7;;;11.9;67.3
41230;BME280;26964;50.428;19.218;2023-08-12T02:12:49;1025.7;;;11.8;67.4
41230;BME280;26964;50.428;19.218;2023-08-12T02:13:49;1025.6;;;11.8;67.4
41230;BME280;26964;50.428;19.218;2023-08-12T02:14:49;1025.6;;;11.8;67.5
41230;BME280;26964;50.428;19.218;2023-08-12T02:15:49;1025.5;;;11.8;67.5
41230;BME280;26964;50.428;19.218;2023-08-12T02:16:49;1025.6;;;11.8;67.5
41230;BME280;26964;50.428;19.218;2023-08-12T02:17:49;1025.6;;;11.8;67.6
41230;BME280;26964;50.428;19.218;2023-08-12T02:18:49;1025.7;;;11.8;67.6
41230;BME280;26964;50.428;19.218;2023-08-12T02:19:49;1025.7;;;11.8;67.6
41230;BME280;26964;50.428;19.218;2023-08-12T02:20:49;1025.7;;;11.8;67.7
41230;BME280;26964;50.428;19.218;2023-08-12T02:21:49;1025.7;;;11.8;67.7
41230;BME280;26964;50.428;19.218;2023-08-12T02:22:49;1025.7;;;11.7;67.7
41230;BME280;26964;50.428;19.218;2023-08-12T02:23:49;1025.7;;;11.7;67.7
41230;BME280;26964;50.428;19.218;2023-08-12T02:24:49;1025.6;;;11.7;67.7
41230;BME280;26964;50.428;19.218;2023-08-12T02:25:48;1025.7;;;11.7;67.7
41230;BME280;26964;50.428;19.218;2023-08-12T02:26:49;1025.7;;;11.7;67.7
41230;BME280;26964;50.428;19.218;2023-08-12T02:27:48;1025.7;;;11.7;67.7
41230;BME280;26964;50.428;19.218;2023-08-12T02:28:48;1025.7;;;11.7;67.7
41230;BME280;26964;50.428;19.218;2023-08-12T02:29:49;1025.7;;;11.7;67.7
41230;BME280;26964;50.428;19.218;2023-08-12T02:30:49;1025.8;;;11.7;67.7
41230;BME280;26964;50.428;19.218;2023-08-12T02:31:49;1025.7;;;11.6;67.7
41230;BME280;26964;50.428;19.218;2023-08-12T02:32:49;1025.7;;;11.6;67.7
41230;BME280;26964;50.428;19.218;2023-08-12T02:33:49;1025.7;;;11.6;67.7
41230;BME280;26964;50.428;19.218;2023-08-12T02:34:48;1025.7;;;11.6;67.8
41230;BME280;26964;50.428;19.218;2023-08-12T02:35:52;1025.8;;;11.6;67.8
41230;BME280;26964;50.428;19.218;2023-08-12T02:36:48;1025.7;;;11.6;67.8
41230;BME280;26964;50.428;19.218;2023-08-12T02:37:48;1025.7;;;11.6;67.8
41230;BME280;26964;50.428;19.218;2023-08-12T02:38:49;1025.7;;;11.6;67.9
41230;BME280;26964;50.428;19.218;2023-08-12T02:39:49;1025.7;;;11.5;67.9
41230;BME280;26964;50.428;19.218;2023-08-12T02:40:49;1025.7;;;11.5;67.9
41230;BME280;26964;50.428;19.218;2023-08-12T02:41:49;1025.7;;;11.5;67.9
41230;BME280;26964;50.428;19.218;2023-08-12T02:42:49;1025.7;;;11.5;67.9
41230;BME280;26964;50.428;19.218;2023-08-12T02:43:49;1025.7;;;11.5;67.9
41230;BME280;26964;50.428;19.218;2023-08-12T02:44:48;1025.7;;;11.5;68.0
41230;BME280;26964;50.428;19.218;2023-08-12T02:45:49;1025.7;;;11.4;67.9
41230;BME280;26964;50.428;19.218;2023-08-12T02:46:49;1025.7;;;11.4;67.9
41230;BME280;26964;50.428;19.218;2023-08-12T02:47:48;1025.8;;;11.4;67.9
41230;BME280;26964;50.428;19.218;2023-08-12T02:48:48;1025.8;;;11.4;67.9
41230;BME280;26964;50.428;19.218;2023-08-12T02:49:48;1025.6;;;11.4;68.0
41230;BME280;26964;50.428;19.218;2023-08-12T02:50:49;1025.7;;;11.4;68.0
41230;BME280;26964;50.428;19.218;2023-08-12T02:51:49;1025.7;;;11.3;68.0
41230;BME280;26964;50.428;19.218;2023-08-12T02:52:49;1025.7;;;11.3;68.1
41230;BME280;26964;50.428;19.218;2023-08-12T02:53:49;1025.7;;;11.3;68.1
41230;BME280;26964;50.428;19.218;2023-08-12T02:54:49;1025.7;;;11.3;68.1
41230;BME280;26964;50.428;19.218;2023-08-12T02:55:49;1025.6;;;11.3;68.2
41230;BME280;26964;50.428;19.218;2023-08-12T02:56:49;1025.7;;;11.3;68.2
41230;BME280;26964;50.428;19.218;2023-08-12T02:57:49;1025.7;;;11.3;68.2
41230;BME280;26964;50.428;19.218;2023-08-12T02:58:48;1025.6;;;11.2;68.2
41230;BME280;26964;50.428;19.218;2023-08-12T02:59:49;1025.6;;;11.2;68.2
41230;BME280;26964;50.428;19.218;2023-08-12T03:00:49;1025.6;;;11.2;68.2
41230;BME280;26964;50.428;19.218;2023-08-12T03:01:49;1025.6;;;11.2;68.2
41230;BME280;26964;50.428;19.218;2023-08-12T03:02:49;1025.8;;;11.1;68.2
41230;BME280;26964;50.428;19.218;2023-08-12T03:03:49;1025.7;;;11.1;68.3
41230;BME280;26964;50.428;19.218;2023-08-12T03:04:49;1025.7;;;11.1;68.3
41230;BME280;26964;50.428;19.218;2023-08-12T03:05:48;1025.6;;;11.1;68.4
41230;BME280;26964;50.428;19.218;2023-08-12T03:06:49;1025.6;;;11.1;68.4
41230;BME280;26964;50.428;19.218;2023-08-12T03:07:49;1025.6;;;11.1;68.4
41230;BME280;26964;50.428;19.218;2023-08-12T03:08:49;1025.7;;;11.1;68.4
41230;BME280;26964;50.428;19.218;2023-08-12T03:09:48;1025.6;;;11.1;68.4
41230;BME280;26964;50.428;19.218;2023-08-12T03:10:49;1025.6;;;11.1;68.4
41230;BME280;26964;50.428;19.218;2023-08-12T03:11:49;1025.6;;;11.1;68.4
41230;BME280;26964;50.428;19.218;2023-08-12T03:12:49;1025.6;;;11.1;68.4
41230;BME280;26964;50.428;19.218;2023-08-12T03:13:49;1025.6;;;11.1;68.4
41230;BME280;26964;50.428;19.218;2023-08-12T03:14:49;1025.7;;;11.1;68.4
41230;BME280;26964;50.428;19.218;2023-08-12T03:15:49;1025.6;;;11.1;68.5
41230;BME280;26964;50.428;19.218;2023-08-12T03:16:49;1025.6;;;11.1;68.5
41230;BME280;26964;50.428;19.218;2023-08-12T03:17:49;1025.6;;;11.1;68.5
41230;BME280;26964;50.428;19.218;2023-08-12T03:18:49;1025.6;;;11.0;68.5
41230;BME280;26964;50.428;19.218;2023-08-12T03:19:49;1025.6;;;11.0;68.5
41230;BME280;26964;50.428;19.218;2023-08-12T03:20:48;1025.6;;;11.0;68.5
41230;BME280;26964;50.428;19.218;2023-08-12T03:21:49;1025.6;;;11.0;68.5
41230;BME280;26964;50.428;19.218;2023-08-12T03:22:50;1025.5;;;11.0;68.5
41230;BME280;26964;50.428;19.218;2023-08-12T03:23:49;1025.4;;;11.0;68.5
41230;BME280;26964;50.428;19.218;2023-08-12T03:24:48;1025.5;;;10.9;68.6
41230;BME280;26964;50.428;19.218;2023-08-12T03:25:49;1025.5;;;10.9;68.6
41230;BME280;26964;50.428;19.218;2023-08-12T03:26:49;1025.5;;;10.9;68.7
41230;BME280;26964;50.428;19.218;2023-08-12T03:27:49;1025.6;;;10.9;68.7
41230;BME280;26964;50.428;19.218;2023-08-12T03:28:49;1025.5;;;10.9;68.7
41230;BME280;26964;50.428;19.218;2023-08-12T03:29:49;1025.5;;;10.9;68.8
41230;BME280;26964;50.428;19.218;2023-08-12T03:30:50;1025.5;;;10.9;68.8
41230;BME280;26964;50.428;19.218;2023-08-12T03:31:48;1025.6;;;10.9;68.8
41230;BME280;26964;50.428;19.218;2023-08-12T03:32:51;1025.5;;;10.9;68.8
41230;BME280;26964;50.428;19.218;2023-08-12T03:33:49;1025.5;;;10.9;68.8
41230;BME280;26964;50.428;19.218;2023-08-12T03:34:49;1025.5;;;10.9;68.8
41230;BME280;26964;50.428;19.218;2023-08-12T03:35:49;1025.5;;;10.9;68.9
41230;BME280;26964;50.428;19.218;2023-08-12T03:36:49;1025.6;;;10.9;68.9
41230;BME280;26964;50.428;19.218;2023-08-12T03:37:48;1025.6;;;10.9;68.9
41230;BME280;26964;50.428;19.218;2023-08-12T03:38:49;1025.6;;;10.9;68.9
41230;BME280;26964;50.428;19.218;2023-08-12T03:39:49;1025.5;;;10.9;68.9
41230;BME280;26964;50.428;19.218;2023-08-12T03:40:49;1025.5;;;11.0;69.0
41230;BME280;26964;50.428;19.218;2023-08-12T03:41:49;1025.5;;;11.0;69.0
41230;BME280;26964;50.428;19.218;2023-08-12T03:42:48;1025.5;;;11.0;69.0
41230;BME280;26964;50.428;19.218;2023-08-12T03:43:48;1025.5;;;11.0;69.0
41230;BME280;26964;50.428;19.218;2023-08-12T03:44:49;1025.5;;;11.0;69.0
41230;BME280;26964;50.428;19.218;2023-08-12T03:45:48;1025.5;;;11.0;69.0
41230;BME280;26964;50.428;19.218;2023-08-12T03:46:49;1025.5;;;11.0;69.0
41230;BME280;26964;50.428;19.218;2023-08-12T03:47:49;1025.6;;;11.0;69.0
41230;BME280;26964;50.428;19.218;2023-08-12T03:48:48;1025.5;;;11.0;69.1
41230;BME280;26964;50.428;19.218;2023-08-12T03:49:48;1025.6;;;11.0;69.1
41230;BME280;26964;50.428;19.218;2023-08-12T03:50:49;1025.6;;;11.1;69.1
41230;BME280;26964;50.428;19.218;2023-08-12T03:51:49;1025.6;;;11.1;69.1
41230;BME280;26964;50.428;19.218;2023-08-12T03:52:49;1025.6;;;11.1;69.1
41230;BME280;26964;50.428;19.218;2023-08-12T03:53:48;1025.6;;;11.1;69.2
41230;BME280;26964;50.428;19.218;2023-08-12T03:54:49;1025.6;;;11.1;69.2
41230;BME280;26964;50.428;19.218;2023-08-12T03:55:48;1025.6;;;11.1;69.3
41230;BME280;26964;50.428;19.218;2023-08-12T03:56:49;1025.6;;;11.1;69.3
41230;BME280;26964;50.428;19.218;2023-08-12T03:57:49;1025.6;;;11.1;69.3
41230;BME280;26964;50.428;19.218;2023-08-12T03:58:49;1025.6;;;11.1;69.3
41230;BME280;26964;50.428;19.218;2023-08-12T03:59:49;1025.6;;;11.1;69.4
41230;BME280;26964;50.428;19.218;2023-08-12T04:00:48;1025.6;;;11.2;69.4
41230;BME280;26964;50.428;19.218;2023-08-12T04:01:48;1025.6;;;11.2;69.4
41230;BME280;26964;50.428;19.218;2023-08-12T04:02:49;1025.6;;;11.2;69.4
41230;BME280;26964;50.428;19.218;2023-08-12T04:03:49;1025.6;;;11.2;69.4
41230;BME280;26964;50.428;19.218;2023-08-12T04:04:48;1025.6;;;11.2;69.4
41230;BME280;26964;50.428;19.218;2023-08-12T04:05:48;1025.7;;;11.3;69.4
41230;BME280;26964;50.428;19.218;2023-08-12T04:06:49;1025.6;;;11.3;69.4
41230;BME280;26964;50.428;19.218;2023-08-12T04:07:49;1025.6;;;11.3;69.5
41230;BME280;26964;50.428;19.218;2023-08-12T04:08:49;1025.7;;;11.3;69.5
41230;BME280;26964;50.428;19.218;2023-08-12T04:09:49;1025.6;;;11.3;69.5
41230;BME280;26964;50.428;19.218;2023-08-12T04:10:49;1025.6;;;11.4;69.5
41230;BME280;26964;50.428;19.218;2023-08-12T04:11:49;1025.7;;;11.4;69.5
41230;BME280;26964;50.428;19.218;2023-08-12T04:12:49;1025.6;;;11.4;69.5
41230;BME280;26964;50.428;19.218;2023-08-12T04:13:49;1025.6;;;11.4;69.6
41230;BME280;26964;50.428;19.218;2023-08-12T04:14:49;1025.6;;;11.4;69.6
41230;BME280;26964;50.428;19.218;2023-08-12T04:15:49;1025.6;;;11.4;69.6
41230;BME280;26964;50.428;19.218;2023-08-12T04:16:49;1025.6;;;11.5;69.7
41230;BME280;26964;50.428;19.218;2023-08-12T04:17:49;1025.6;;;11.5;69.7
41230;BME280;26964;50.428;19.218;2023-08-12T04:18:49;1025.6;;;11.5;69.7
41230;BME280;26964;50.428;19.218;2023-08-12T04:19:49;1025.6;;;11.6;69.7
41230;BME280;26964;50.428;19.218;2023-08-12T04:20:49;1025.6;;;11.6;69.7
41230;BME280;26964;50.428;19.218;2023-08-12T04:21:49;1025.7;;;11.6;69.7
41230;BME280;26964;50.428;19.218;2023-08-12T04:22:49;1025.6;;;11.6;69.8
41230;BME280;26964;50.428;19.218;2023-08-12T04:23:49;1025.6;;;11.6;69.8
41230;BME280;26964;50.428;19.218;2023-08-12T04:24:48;1025.6;;;11.7;69.8
41230;BME280;26964;50.428;19.218;2023-08-12T04:25:48;1025.6;;;11.7;69.8
41230;BME280;26964;50.428;19.218;2023-08-12T04:26:48;1025.6;;;11.7;69.8
41230;BME280;26964;50.428;19.218;2023-08-12T04:27:49;1025.6;;;11.8;69.8
41230;BME280;26964;50.428;19.218;2023-08-12T04:28:49;1025.7;;;11.8;69.8
41230;BME280;26964;50.428;19.218;2023-08-12T04:29:49;1025.6;;;11.8;69.8
41230;BME280;26964;50.428;19.218;2023-08-12T04:30:49;1025.6;;;11.9;69.9
41230;BME280;26964;50.428;19.218;2023-08-12T04:31:49;1025.7;;;11.9;69.9
41230;BME280;26964;50.428;19.218;2023-08-12T04:32:49;1025.7;;;11.9;69.9
41230;BME280;26964;50.428;19.218;2023-08-12T04:33:49;1025.7;;;11.9;69.8
41230;BME280;26964;50.428;19.218;2023-08-12T04:34:49;1025.7;;;12.0;69.9
41230;BME280;26964;50.428;19.218;2023-08-12T04:35:49;1025.8;;;12.0;69.9
41230;BME280;26964;50.428;19.218;2023-08-12T04:36:49;1025.7;;;12.1;69.9
41230;BME280;26964;50.428;19.218;2023-08-12T04:37:48;1025.6;;;12.1;69.9
41230;BME280;26964;50.428;19.218;2023-08-12T04:38:48;1025.7;;;12.1;70.0
41230;BME280;26964;50.428;19.218;2023-08-12T04:39:49;1025.7;;;12.1;69.9
41230;BME280;26964;50.428;19.218;2023-08-12T04:40:49;1025.6;;;12.2;70.0
41230;BME280;26964;50.428;19.218;2023-08-12T04:41:49;1025.7;;;12.2;70.0
41230;BME280;26964;50.428;19.218;2023-08-12T04:42:49;1025.7;;;12.3;70.0
41230;BME280;26964;50.428;19.218;2023-08-12T04:43:49;1025.7;;;12.3;70.0
41230;BME280;26964;50.428;19.218;2023-08-12T04:44:49;1025.7;;;12.3;70.0
41230;BME280;26964;50.428;19.218;2023-08-12T04:45:48;1025.7;;;12.4;70.1
41230;BME280;26964;50.428;19.218;2023-08-12T04:46:49;1025.7;;;12.4;70.1
41230;BME280;26964;50.428;19.218;2023-08-12T04:47:49;1025.7;;;12.4;70.1
41230;BME280;26964;50.428;19.218;2023-08-12T04:48:49;1025.7;;;12.4;70.1
41230;BME280;26964;50.428;19.218;2023-08-12T04:49:48;1025.7;;;12.5;70.1
41230;BME280;26964;50.428;19.218;2023-08-12T04:50:49;1025.6;;;12.5;70.1
41230;BME280;26964;50.428;19.218;2023-08-12T04:51:51;1025.6;;;12.6;70.1
41230;BME280;26964;50.428;19.218;2023-08-12T04:52:49;1025.7;;;12.6;70.1
41230;BME280;26964;50.428;19.218;2023-08-12T04:53:49;1025.7;;;12.6;70.1
41230;BME280;26964;50.428;19.218;2023-08-12T04:55:49;1025.7;;;12.7;70.2
41230;BME280;26964;50.428;19.218;2023-08-12T04:56:49;1025.7;;;12.7;70.2
41230;BME280;26964;50.428;19.218;2023-08-12T04:57:49;1025.6;;;12.8;70.2
41230;BME280;26964;50.428;19.218;2023-08-12T04:58:49;1025.6;;;12.8;70.3
41230;BME280;26964;50.428;19.218;2023-08-12T04:59:48;1025.7;;;12.8;70.3
41230;BME280;26964;50.428;19.218;2023-08-12T05:00:49;1025.7;;;12.9;70.3
41230;BME280;26964;50.428;19.218;2023-08-12T05:01:48;1025.6;;;12.9;70.3
41230;BME280;26964;50.428;19.218;2023-08-12T05:02:48;1025.7;;;12.9;70.3
41230;BME280;26964;50.428;19.218;2023-08-12T05:03:49;1025.7;;;13.0;70.3
41230;BME280;26964;50.428;19.218;2023-08-12T05:04:48;1025.6;;;13.0;70.3
41230;BME280;26964;50.428;19.218;2023-08-12T05:05:50;1025.6;;;13.1;70.4
41230;BME280;26964;50.428;19.218;2023-08-12T05:06:49;1025.7;;;13.1;70.4
41230;BME280;26964;50.428;19.218;2023-08-12T05:07:49;1025.7;;;13.1;70.4
41230;BME280;26964;50.428;19.218;2023-08-12T05:08:49;1025.7;;;13.2;70.4
41230;BME280;26964;50.428;19.218;2023-08-12T05:09:49;1025.7;;;13.2;70.4
41230;BME280;26964;50.428;19.218;2023-08-12T05:10:48;1025.7;;;13.3;70.4
41230;BME280;26964;50.428;19.218;2023-08-12T05:11:49;1025.7;;;13.3;70.4
41230;BME280;26964;50.428;19.218;2023-08-12T05:12:49;1025.6;;;13.3;70.4
41230;BME280;26964;50.428;19.218;2023-08-12T05:13:49;1025.7;;;13.4;70.4
41230;BME280;26964;50.428;19.218;2023-08-12T05:14:49;1025.7;;;13.4;70.4
41230;BME280;26964;50.428;19.218;2023-08-12T05:15:49;1025.7;;;13.4;70.4
41230;BME280;26964;50.428;19.218;2023-08-12T05:16:49;1025.6;;;13.5;70.5
41230;BME280;26964;50.428;19.218;2023-08-12T05:17:49;1025.6;;;13.5;70.5
41230;BME280;26964;50.428;19.218;2023-08-12T05:18:49;1025.6;;;13.6;70.5
41230;BME280;26964;50.428;19.218;2023-08-12T05:19:49;1025.6;;;13.6;70.5
41230;BME280;26964;50.428;19.218;2023-08-12T05:20:50;1025.6;;;13.6;70.5
41230;BME280;26964;50.428;19.218;2023-08-12T05:21:48;1025.6;;;13.7;70.5
41230;BME280;26964;50.428;19.218;2023-08-12T05:22:49;1025.5;;;13.7;70.5
41230;BME280;26964;50.428;19.218;2023-08-12T05:23:49;1025.5;;;13.8;70.5
41230;BME280;26964;50.428;19.218;2023-08-12T05:24:49;1025.6;;;13.8;70.5
41230;BME280;26964;50.428;19.218;2023-08-12T05:25:49;1025.6;;;13.8;70.5
41230;BME280;26964;50.428;19.218;2023-08-12T05:26:49;1025.7;;;13.9;70.5
41230;BME280;26964;50.428;19.218;2023-08-12T05:27:49;1025.6;;;13.9;70.5
41230;BME280;26964;50.428;19.218;2023-08-12T05:28:49;1025.6;;;13.9;70.5
41230;BME280;26964;50.428;19.218;2023-08-12T05:29:49;1025.6;;;14.0;70.5
41230;BME280;26964;50.428;19.218;2023-08-12T05:30:49;1025.7;;;14.0;70.5
41230;BME280;26964;50.428;19.218;2023-08-12T05:31:49;1025.7;;;14.1;70.5